sensor_id;sensor_type;location;lat;lon;timestamp;temperature;humidity
40660;DHT22;26753;45.544;9.232;2022-10-16T00:02:13;20.60;99.90
40660;DHT22;26753;45.544;9.232;2022-10-16T00:04:38;20.60;99.90
40660;DHT22;26753;45.544;9.232;2022-10-16T00:07:04;20.70;99.90
40660;DHT22;26753;45.544;9.232;2022-10-16T00:09:30;20.50;99.90
40660;DHT22;26753;45.544;9.232;2022-10-16T00:11:55;20.50;99.90
40660;DHT22;26753;45.544;9.232;2022-10-16T00:14:21;20.50;99.90
40660;DHT22;26753;45.544;9.232;2022-10-16T00:16:47;20.50;99.90
40660;DHT22;26753;45.544;9.232;2022-10-16T00:19:12;20.60;99.90
40660;DHT22;26753;45.544;9.232;2022-10-16T00:21:38;20.50;99.90
40660;DHT22;26753;45.544;9.232;2022-10-16T00:24:07;20.50;99.90
40660;DHT22;26753;45.544;9.232;2022-10-16T00:26:37;20.60;99.90
40660;DHT22;26753;45.544;9.232;2022-10-16T00:29:04;20.60;99.90
40660;DHT22;26753;45.544;9.232;2022-10-16T00:31:30;20.50;99.90
40660;DHT22;26753;45.544;9.232;2022-10-16T00:33:56;20.40;99.90
40660;DHT22;26753;45.544;9.232;2022-10-16T00:36:23;20.30;99.90
40660;DHT22;26753;45.544;9.232;2022-10-16T00:38:57;20.20;99.90
40660;DHT22;26753;45.544;9.232;2022-10-16T00:41:25;20.20;99.90
40660;DHT22;26753;45.544;9.232;2022-10-16T00:43:54;20.10;99.90
40660;DHT22;26753;45.544;9.232;2022-10-16T00:49:03;20.00;99.90
40660;DHT22;26753;45.544;9.232;2022-10-16T00:51:35;20.00;99.90
40660;DHT22;26753;45.544;9.232;2022-10-16T00:54:04;20.00;99.90
40660;DHT22;26753;45.544;9.232;2022-10-16T00:56:32;20.10;99.90
40660;DHT22;26753;45.544;9.232;2022-10-16T00:58:59;20.20;99.90
40660;DHT22;26753;45.544;9.232;2022-10-16T01:01:27;20.20;99.90
40660;DHT22;26753;45.544;9.232;2022-10-16T01:03:53;20.30;99.90
40660;DHT22;26753;45.544;9.232;2022-10-16T01:06:31;20.20;99.90
40660;DHT22;26753;45.544;9.232;2022-10-16T01:09:21;20.10;99.90
40660;DHT22;26753;45.544;9.232;2022-10-16T01:11:57;20.10;99.90
40660;DHT22;26753;45.544;9.232;2022-10-16T01:14:47;20.00;99.90
40660;DHT22;26753;45.544;9.232;2022-10-16T01:17:45;20.00;99.90
40660;DHT22;26753;45.544;9.232;2022-10-16T01:20:37;20.00;99.90
40660;DHT22;26753;45.544;9.232;2022-10-16T01:28:34;20.10;99.90
40660;DHT22;26753;45.544;9.232;2022-10-16T01:31:02;20.10;99.90
40660;DHT22;26753;45.544;9.232;2022-10-16T01:33:43;20.00;99.90
40660;DHT22;26753;45.544;9.232;2022-10-16T01:36:14;20.00;99.90
40660;DHT22;26753;45.544;9.232;2022-10-16T01:38:43;20.00;99.90
40660;DHT22;26753;45.544;9.232;2022-10-16T01:41:21;20.00;99.90
40660;DHT22;26753;45.544;9.232;2022-10-16T01:43:59;20.00;99.90
40660;DHT22;26753;45.544;9.232;2022-10-16T01:46:28;19.90;99.90
40660;DHT22;26753;45.544;9.232;2022-10-16T01:48:55;19.90;99.90
40660;DHT22;26753;45.544;9.232;2022-10-16T01:51:23;20.00;99.90
40660;DHT22;26753;45.544;9.232;2022-10-16T01:53:54;19.90;99.90
40660;DHT22;26753;45.544;9.232;2022-10-16T01:56:21;19.90;99.90
40660;DHT22;26753;45.544;9.232;2022-10-16T01:58:54;19.90;99.90
40660;DHT22;26753;45.544;9.232;2022-10-16T02:01:23;19.90;99.90
40660;DHT22;26753;45.544;9.232;2022-10-16T02:03:52;19.90;99.90
40660;DHT22;26753;45.544;9.232;2022-10-16T02:06:19;19.80;99.90
40660;DHT22;26753;45.544;9.232;2022-10-16T02:08:45;19.80;99.90
40660;DHT22;26753;45.544;9.232;2022-10-16T02:11:11;19.70;99.90
40660;DHT22;26753;45.544;9.232;2022-10-16T02:16:05;19.50;99.90
40660;DHT22;26753;45.544;9.232;2022-10-16T02:18:33;19.60;99.90
40660;DHT22;26753;45.544;9.232;2022-10-16T02:21:25;19.70;99.90
40660;DHT22;26753;45.544;9.232;2022-10-16T02:24:57;19.80;99.90
40660;DHT22;26753;45.544;9.232;2022-10-16T02:27:14;19.80;99.90
40660;DHT22;26753;45.544;9.232;2022-10-16T02:30:05;19.90;99.90
40660;DHT22;26753;45.544;9.232;2022-10-16T02:32:34;19.70;99.90
40660;DHT22;26753;45.544;9.232;2022-10-16T02:35:02;19.90;99.90
40660;DHT22;26753;45.544;9.232;2022-10-16T02:37:29;19.90;99.90
40660;DHT22;26753;45.544;9.232;2022-10-16T02:39:57;19.90;99.90
40660;DHT22;26753;45.544;9.232;2022-10-16T02:42:34;20.00;99.90
40660;DHT22;26753;45.544;9.232;2022-10-16T02:45:00;20.00;99.90
40660;DHT22;26753;45.544;9.232;2022-10-16T02:47:26;19.90;99.90
40660;DHT22;26753;45.544;9.232;2022-10-16T02:49:52;19.90;99.90
40660;DHT22;26753;45.544;9.232;2022-10-16T02:52:18;19.70;99.90
40660;DHT22;26753;45.544;9.232;2022-10-16T02:54:43;19.80;99.90
40660;DHT22;26753;45.544;9.232;2022-10-16T02:57:09;19.90;99.90
40660;DHT22;26753;45.544;9.232;2022-10-16T02:59:35;19.80;99.90
40660;DHT22;26753;45.544;9.232;2022-10-16T03:02:00;19.70;99.90
40660;DHT22;26753;45.544;9.232;2022-10-16T03:04:26;19.70;99.90
40660;DHT22;26753;45.544;9.232;2022-10-16T03:06:51;19.70;99.90
40660;DHT22;26753;45.544;9.232;2022-10-16T03:09:17;19.70;99.90
40660;DHT22;26753;45.544;9.232;2022-10-16T03:11:46;19.60;99.90
40660;DHT22;26753;45.544;9.232;2022-10-16T03:14:12;19.70;99.90
40660;DHT22;26753;45.544;9.232;2022-10-16T03:16:38;19.70;99.90
40660;DHT22;26753;45.544;9.232;2022-10-16T03:19:04;19.80;99.90
40660;DHT22;26753;45.544;9.232;2022-10-16T03:21:30;19.80;99.90
40660;DHT22;26753;45.544;9.232;2022-10-16T03:23:55;19.80;99.90
40660;DHT22;26753;45.544;9.232;2022-10-16T03:26:21;19.80;99.90
40660;DHT22;26753;45.544;9.232;2022-10-16T03:28:47;19.80;99.90
40660;DHT22;26753;45.544;9.232;2022-10-16T03:31:12;19.80;99.90
40660;DHT22;26753;45.544;9.232;2022-10-16T03:33:40;19.90;99.90
40660;DHT22;26753;45.544;9.232;2022-10-16T03:36:05;19.90;99.90
40660;DHT22;26753;45.544;9.232;2022-10-16T03:38:32;19.90;99.90
40660;DHT22;26753;45.544;9.232;2022-10-16T03:40:57;19.80;99.90
40660;DHT22;26753;45.544;9.232;2022-10-16T03:43:23;19.70;99.90
40660;DHT22;26753;45.544;9.232;2022-10-16T03:45:51;19.60;99.90
40660;DHT22;26753;45.544;9.232;2022-10-16T03:48:18;19.60;99.90
40660;DHT22;26753;45.544;9.232;2022-10-16T03:50:44;19.60;99.90
40660;DHT22;26753;45.544;9.232;2022-10-16T03:53:10;19.60;99.90
40660;DHT22;26753;45.544;9.232;2022-10-16T03:55:36;19.50;99.90
40660;DHT22;26753;45.544;9.232;2022-10-16T03:58:01;19.50;99.90
40660;DHT22;26753;45.544;9.232;2022-10-16T04:00:27;19.40;99.90
40660;DHT22;26753;45.544;9.232;2022-10-16T04:02:53;19.40;99.90
40660;DHT22;26753;45.544;9.232;2022-10-16T04:05:19;19.40;99.90
40660;DHT22;26753;45.544;9.232;2022-10-16T04:07:45;19.40;99.90
40660;DHT22;26753;45.544;9.232;2022-10-16T04:10:10;19.40;99.90
40660;DHT22;26753;45.544;9.232;2022-10-16T04:12:36;19.40;99.90
40660;DHT22;26753;45.544;9.232;2022-10-16T04:15:02;19.50;99.90
40660;DHT22;26753;45.544;9.232;2022-10-16T04:17:28;19.50;99.90
40660;DHT22;26753;45.544;9.232;2022-10-16T04:19:54;19.50;99.90
40660;DHT22;26753;45.544;9.232;2022-10-16T04:22:21;19.40;99.90
40660;DHT22;26753;45.544;9.232;2022-10-16T04:24:47;19.30;99.90
40660;DHT22;26753;45.544;9.232;2022-10-16T04:27:13;19.30;99.90
40660;DHT22;26753;45.544;9.232;2022-10-16T04:29:38;19.30;99.90
40660;DHT22;26753;45.544;9.232;2022-10-16T04:32:04;19.30;99.90
40660;DHT22;26753;45.544;9.232;2022-10-16T04:34:30;19.20;99.90
40660;DHT22;26753;45.544;9.232;2022-10-16T04:36:56;19.20;99.90
40660;DHT22;26753;45.544;9.232;2022-10-16T04:39:21;19.20;99.90
40660;DHT22;26753;45.544;9.232;2022-10-16T04:41:47;19.20;99.90
40660;DHT22;26753;45.544;9.232;2022-10-16T04:44:13;19.20;99.90
40660;DHT22;26753;45.544;9.232;2022-10-16T04:46:38;19.20;99.90
40660;DHT22;26753;45.544;9.232;2022-10-16T04:49:04;19.20;99.90
40660;DHT22;26753;45.544;9.232;2022-10-16T04:51:30;19.20;99.90
40660;DHT22;26753;45.544;9.232;2022-10-16T04:53:55;19.10;99.90
40660;DHT22;26753;45.544;9.232;2022-10-16T04:56:21;19.20;99.90
40660;DHT22;26753;45.544;9.232;2022-10-16T04:58:47;19.10;99.90
40660;DHT22;26753;45.544;9.232;2022-10-16T05:01:13;19.20;99.90
40660;DHT22;26753;45.544;9.232;2022-10-16T05:03:39;19.20;99.90
40660;DHT22;26753;45.544;9.232;2022-10-16T05:06:06;19.20;99.90
40660;DHT22;26753;45.544;9.232;2022-10-16T05:08:32;19.30;99.90
40660;DHT22;26753;45.544;9.232;2022-10-16T05:10:57;19.20;99.90
40660;DHT22;26753;45.544;9.232;2022-10-16T05:13:23;19.20;99.90
40660;DHT22;26753;45.544;9.232;2022-10-16T05:15:49;19.20;99.90
40660;DHT22;26753;45.544;9.232;2022-10-16T05:18:16;19.20;99.90
40660;DHT22;26753;45.544;9.232;2022-10-16T05:20:42;19.10;99.90
40660;DHT22;26753;45.544;9.232;2022-10-16T05:23:08;19.10;99.90
40660;DHT22;26753;45.544;9.232;2022-10-16T05:25:36;19.30;99.90
40660;DHT22;26753;45.544;9.232;2022-10-16T05:28:02;19.20;99.90
40660;DHT22;26753;45.544;9.232;2022-10-16T05:30:28;19.10;99.90
40660;DHT22;26753;45.544;9.232;2022-10-16T05:32:54;19.10;99.90
40660;DHT22;26753;45.544;9.232;2022-10-16T05:35:20;19.10;99.90
40660;DHT22;26753;45.544;9.232;2022-10-16T05:37:46;19.10;99.90
40660;DHT22;26753;45.544;9.232;2022-10-16T05:40:12;19.10;99.90
40660;DHT22;26753;45.544;9.232;2022-10-16T05:42:39;19.00;99.90
40660;DHT22;26753;45.544;9.232;2022-10-16T05:45:06;19.10;99.90
40660;DHT22;26753;45.544;9.232;2022-10-16T05:47:32;19.10;99.90
40660;DHT22;26753;45.544;9.232;2022-10-16T05:49:58;19.10;99.90
40660;DHT22;26753;45.544;9.232;2022-10-16T05:52:30;19.10;99.90
40660;DHT22;26753;45.544;9.232;2022-10-16T05:55:08;19.20;99.90
40660;DHT22;26753;45.544;9.232;2022-10-16T05:57:34;19.20;99.90
40660;DHT22;26753;45.544;9.232;2022-10-16T06:00:00;19.20;99.90
40660;DHT22;26753;45.544;9.232;2022-10-16T06:02:25;19.10;99.90
40660;DHT22;26753;45.544;9.232;2022-10-16T06:04:52;19.10;99.90
40660;DHT22;26753;45.544;9.232;2022-10-16T06:07:21;20.00;99.90
40660;DHT22;26753;45.544;9.232;2022-10-16T06:09:51;19.20;99.90
40660;DHT22;26753;45.544;9.232;2022-10-16T06:12:17;19.10;99.90
40660;DHT22;26753;45.544;9.232;2022-10-16T06:14:47;19.10;99.90
40660;DHT22;26753;45.544;9.232;2022-10-16T06:17:14;19.10;99.90
40660;DHT22;26753;45.544;9.232;2022-10-16T06:19:40;19.10;99.90
40660;DHT22;26753;45.544;9.232;2022-10-16T06:22:06;19.10;99.90
40660;DHT22;26753;45.544;9.232;2022-10-16T06:24:48;19.20;99.90
40660;DHT22;26753;45.544;9.232;2022-10-16T06:27:38;19.20;99.90
40660;DHT22;26753;45.544;9.232;2022-10-16T06:30:01;19.00;99.90
40660;DHT22;26753;45.544;9.232;2022-10-16T06:32:28;19.10;99.90
40660;DHT22;26753;45.544;9.232;2022-10-16T06:34:59;19.20;99.90
40660;DHT22;26753;45.544;9.232;2022-10-16T06:37:25;19.30;99.90
40660;DHT22;26753;45.544;9.232;2022-10-16T06:39:51;19.40;99.90
40660;DHT22;26753;45.544;9.232;2022-10-16T06:42:20;19.50;99.90
40660;DHT22;26753;45.544;9.232;2022-10-16T06:44:49;19.50;99.90
40660;DHT22;26753;45.544;9.232;2022-10-16T06:54:33;19.60;99.90
40660;DHT22;26753;45.544;9.232;2022-10-16T06:57:40;19.70;99.90
40660;DHT22;26753;45.544;9.232;2022-10-16T07:03:24;19.80;99.90
40660;DHT22;26753;45.544;9.232;2022-10-16T07:06:30;19.80;99.90
40660;DHT22;26753;45.544;9.232;2022-10-16T07:15:51;19.90;99.90
40660;DHT22;26753;45.544;9.232;2022-10-16T07:25:42;20.00;99.90
40660;DHT22;26753;45.544;9.232;2022-10-16T07:28:09;20.10;99.90
40660;DHT22;26753;45.544;9.232;2022-10-16T07:30:48;20.10;99.90
40660;DHT22;26753;45.544;9.232;2022-10-16T07:33:44;20.20;99.90
40660;DHT22;26753;45.544;9.232;2022-10-16T07:36:16;20.20;99.90
40660;DHT22;26753;45.544;9.232;2022-10-16T07:38:49;20.30;99.90
40660;DHT22;26753;45.544;9.232;2022-10-16T07:41:20;20.30;99.90
40660;DHT22;26753;45.544;9.232;2022-10-16T07:43:50;20.40;99.90
40660;DHT22;26753;45.544;9.232;2022-10-16T07:46:37;20.50;99.90
40660;DHT22;26753;45.544;9.232;2022-10-16T07:49:06;20.70;99.90
40660;DHT22;26753;45.544;9.232;2022-10-16T07:51:32;20.70;99.90
40660;DHT22;26753;45.544;9.232;2022-10-16T07:54:08;20.80;99.90
40660;DHT22;26753;45.544;9.232;2022-10-16T07:56:34;20.90;99.90
40660;DHT22;26753;45.544;9.232;2022-10-16T07:59:00;20.90;99.90
40660;DHT22;26753;45.544;9.232;2022-10-16T08:01:49;21.00;99.90
40660;DHT22;26753;45.544;9.232;2022-10-16T08:04:15;21.00;99.90
40660;DHT22;26753;45.544;9.232;2022-10-16T08:06:41;21.00;99.90
40660;DHT22;26753;45.544;9.232;2022-10-16T08:09:08;21.00;99.90
40660;DHT22;26753;45.544;9.232;2022-10-16T08:11:37;21.10;99.90
40660;DHT22;26753;45.544;9.232;2022-10-16T08:14:02;21.10;99.90
40660;DHT22;26753;45.544;9.232;2022-10-16T08:16:28;21.10;99.90
40660;DHT22;26753;45.544;9.232;2022-10-16T08:18:54;21.10;99.90
40660;DHT22;26753;45.544;9.232;2022-10-16T08:21:23;21.20;99.90
40660;DHT22;26753;45.544;9.232;2022-10-16T08:23:49;21.20;99.90
40660;DHT22;26753;45.544;9.232;2022-10-16T08:26:15;21.30;99.90
40660;DHT22;26753;45.544;9.232;2022-10-16T08:28:41;21.30;99.90
40660;DHT22;26753;45.544;9.232;2022-10-16T08:31:12;21.50;99.90
40660;DHT22;26753;45.544;9.232;2022-10-16T08:33:43;21.50;99.90
40660;DHT22;26753;45.544;9.232;2022-10-16T08:36:13;21.50;99.90
40660;DHT22;26753;45.544;9.232;2022-10-16T08:38:39;21.60;99.90
40660;DHT22;26753;45.544;9.232;2022-10-16T08:44:01;21.80;99.90
40660;DHT22;26753;45.544;9.232;2022-10-16T08:49:12;22.10;99.90
40660;DHT22;26753;45.544;9.232;2022-10-16T08:51:39;22.20;99.90
40660;DHT22;26753;45.544;9.232;2022-10-16T08:54:23;22.40;99.90
40660;DHT22;26753;45.544;9.232;2022-10-16T08:56:54;22.40;99.90
40660;DHT22;26753;45.544;9.232;2022-10-16T08:59:21;22.60;99.90
40660;DHT22;26753;45.544;9.232;2022-10-16T09:01:50;22.60;99.90
40660;DHT22;26753;45.544;9.232;2022-10-16T09:15:24;22.80;99.90
40660;DHT22;26753;45.544;9.232;2022-10-16T09:18:37;22.70;99.90
40660;DHT22;26753;45.544;9.232;2022-10-16T09:21:23;22.70;99.90
40660;DHT22;26753;45.544;9.232;2022-10-16T09:23:50;22.70;99.90
40660;DHT22;26753;45.544;9.232;2022-10-16T09:26:16;22.70;99.90
40660;DHT22;26753;45.544;9.232;2022-10-16T09:28:43;22.70;99.90
40660;DHT22;26753;45.544;9.232;2022-10-16T09:31:29;22.70;99.90
40660;DHT22;26753;45.544;9.232;2022-10-16T09:33:59;22.70;99.90
40660;DHT22;26753;45.544;9.232;2022-10-16T09:36:27;22.70;99.90
40660;DHT22;26753;45.544;9.232;2022-10-16T09:39:08;22.70;99.90
40660;DHT22;26753;45.544;9.232;2022-10-16T09:41:44;22.80;99.90
40660;DHT22;26753;45.544;9.232;2022-10-16T09:44:28;22.70;99.90
40660;DHT22;26753;45.544;9.232;2022-10-16T09:47:05;22.60;99.90
40660;DHT22;26753;45.544;9.232;2022-10-16T09:49:33;22.70;99.90
40660;DHT22;26753;45.544;9.232;2022-10-16T09:54:31;22.70;99.90
40660;DHT22;26753;45.544;9.232;2022-10-16T09:57:07;22.80;99.90
40660;DHT22;26753;45.544;9.232;2022-10-16T09:59:33;22.70;99.90
40660;DHT22;26753;45.544;9.232;2022-10-16T10:02:03;22.80;99.90
40660;DHT22;26753;45.544;9.232;2022-10-16T10:04:40;22.80;99.90
40660;DHT22;26753;45.544;9.232;2022-10-16T10:07:17;22.80;99.90
40660;DHT22;26753;45.544;9.232;2022-10-16T10:09:44;22.90;99.90
40660;DHT22;26753;45.544;9.232;2022-10-16T10:12:37;22.90;99.90
40660;DHT22;26753;45.544;9.232;2022-10-16T10:15:13;22.90;99.90
40660;DHT22;26753;45.544;9.232;2022-10-16T10:17:53;23.10;99.90
40660;DHT22;26753;45.544;9.232;2022-10-16T10:20:27;23.20;99.90
40660;DHT22;26753;45.544;9.232;2022-10-16T10:22:54;23.20;99.90
40660;DHT22;26753;45.544;9.232;2022-10-16T10:25:36;23.20;99.90
40660;DHT22;26753;45.544;9.232;2022-10-16T10:31:03;23.30;99.90
40660;DHT22;26753;45.544;9.232;2022-10-16T10:33:41;23.40;99.90
40660;DHT22;26753;45.544;9.232;2022-10-16T10:41:45;23.60;99.90
40660;DHT22;26753;45.544;9.232;2022-10-16T10:47:27;23.80;99.90
40660;DHT22;26753;45.544;9.232;2022-10-16T10:50:18;23.60;99.90
40660;DHT22;26753;45.544;9.232;2022-10-16T11:01:39;23.80;99.90
40660;DHT22;26753;45.544;9.232;2022-10-16T11:07:15;23.80;99.90
40660;DHT22;26753;45.544;9.232;2022-10-16T11:09:48;23.70;99.90
40660;DHT22;26753;45.544;9.232;2022-10-16T11:12:21;23.80;99.90
40660;DHT22;26753;45.544;9.232;2022-10-16T11:14:52;23.90;99.90
40660;DHT22;26753;45.544;9.232;2022-10-16T11:17:38;24.00;99.90
40660;DHT22;26753;45.544;9.232;2022-10-16T11:20:21;24.20;99.90
40660;DHT22;26753;45.544;9.232;2022-10-16T11:22:53;24.30;99.90
40660;DHT22;26753;45.544;9.232;2022-10-16T11:28:08;24.50;99.90
40660;DHT22;26753;45.544;9.232;2022-10-16T11:35:48;25.10;99.90
40660;DHT22;26753;45.544;9.232;2022-10-16T11:38:34;25.30;99.90
40660;DHT22;26753;45.544;9.232;2022-10-16T11:43:42;25.70;99.90
40660;DHT22;26753;45.544;9.232;2022-10-16T11:46:12;25.90;99.90
40660;DHT22;26753;45.544;9.232;2022-10-16T11:48:41;26.10;99.90
40660;DHT22;26753;45.544;9.232;2022-10-16T11:51:17;26.30;99.90
40660;DHT22;26753;45.544;9.232;2022-10-16T11:54:21;26.50;99.90
40660;DHT22;26753;45.544;9.232;2022-10-16T11:56:50;27.10;99.90
40660;DHT22;26753;45.544;9.232;2022-10-16T12:01:57;27.20;99.90
40660;DHT22;26753;45.544;9.232;2022-10-16T12:04:36;27.30;99.90
40660;DHT22;26753;45.544;9.232;2022-10-16T12:07:15;27.30;99.90
40660;DHT22;26753;45.544;9.232;2022-10-16T12:09:43;27.40;99.90
40660;DHT22;26753;45.544;9.232;2022-10-16T12:12:38;27.70;99.90
40660;DHT22;26753;45.544;9.232;2022-10-16T12:15:23;28.20;99.90
40660;DHT22;26753;45.544;9.232;2022-10-16T12:17:50;28.50;99.90
40660;DHT22;26753;45.544;9.232;2022-10-16T12:20:29;30.70;99.90
40660;DHT22;26753;45.544;9.232;2022-10-16T12:23:01;33.40;99.90
40660;DHT22;26753;45.544;9.232;2022-10-16T12:28:19;36.50;93.60
40660;DHT22;26753;45.544;9.232;2022-10-16T12:30:58;36.70;90.00
40660;DHT22;26753;45.544;9.232;2022-10-16T12:33:29;38.50;85.50
40660;DHT22;26753;45.544;9.232;2022-10-16T12:35:57;40.00;81.20
40660;DHT22;26753;45.544;9.232;2022-10-16T12:38:37;40.90;77.50
40660;DHT22;26753;45.544;9.232;2022-10-16T12:41:04;41.30;72.80
40660;DHT22;26753;45.544;9.232;2022-10-16T12:46:33;41.90;69.30
40660;DHT22;26753;45.544;9.232;2022-10-16T12:54:17;41.00;68.40
40660;DHT22;26753;45.544;9.232;2022-10-16T13:14:48;44.90;60.40
40660;DHT22;26753;45.544;9.232;2022-10-16T13:20:14;45.90;57.90
40660;DHT22;26753;45.544;9.232;2022-10-16T13:22:50;45.80;58.70
40660;DHT22;26753;45.544;9.232;2022-10-16T13:28:08;46.90;58.00
40660;DHT22;26753;45.544;9.232;2022-10-16T13:33:13;47.90;56.60
40660;DHT22;26753;45.544;9.232;2022-10-16T13:35:51;47.50;56.10
40660;DHT22;26753;45.544;9.232;2022-10-16T13:38:25;47.60;55.50
40660;DHT22;26753;45.544;9.232;2022-10-16T13:41:04;47.00;55.30
40660;DHT22;26753;45.544;9.232;2022-10-16T13:43:40;45.80;55.70
40660;DHT22;26753;45.544;9.232;2022-10-16T13:46:20;42.00;57.30
40660;DHT22;26753;45.544;9.232;2022-10-16T13:49:16;39.50;59.50
40660;DHT22;26753;45.544;9.232;2022-10-16T13:51:57;37.00;61.90
40660;DHT22;26753;45.544;9.232;2022-10-16T13:54:25;35.40;64.30
40660;DHT22;26753;45.544;9.232;2022-10-16T13:56:51;34.00;66.30
40660;DHT22;26753;45.544;9.232;2022-10-16T13:59:32;33.50;67.70
40660;DHT22;26753;45.544;9.232;2022-10-16T14:01:59;33.10;68.60
40660;DHT22;26753;45.544;9.232;2022-10-16T14:04:32;32.30;69.90
40660;DHT22;26753;45.544;9.232;2022-10-16T14:06:58;31.80;70.90
40660;DHT22;26753;45.544;9.232;2022-10-16T14:09:29;31.60;71.90
40660;DHT22;26753;45.544;9.232;2022-10-16T14:12:01;31.50;72.40
40660;DHT22;26753;45.544;9.232;2022-10-16T14:14:48;33.90;71.00
40660;DHT22;26753;45.544;9.232;2022-10-16T14:19:50;38.50;65.00
40660;DHT22;26753;45.544;9.232;2022-10-16T14:22:33;40.00;64.10
40660;DHT22;26753;45.544;9.232;2022-10-16T14:24:59;41.00;61.60
40660;DHT22;26753;45.544;9.232;2022-10-16T14:27:33;40.50;61.80
40660;DHT22;26753;45.544;9.232;2022-10-16T14:30:16;40.20;61.10
40660;DHT22;26753;45.544;9.232;2022-10-16T14:35:33;40.20;61.30
40660;DHT22;26753;45.544;9.232;2022-10-16T14:38:01;40.10;61.20
40660;DHT22;26753;45.544;9.232;2022-10-16T14:40:32;39.20;61.80
40660;DHT22;26753;45.544;9.232;2022-10-16T14:43:00;39.10;62.20
40660;DHT22;26753;45.544;9.232;2022-10-16T14:45:30;39.30;62.50
40660;DHT22;26753;45.544;9.232;2022-10-16T14:47:58;38.90;62.00
40660;DHT22;26753;45.544;9.232;2022-10-16T14:50:24;37.80;62.80
40660;DHT22;26753;45.544;9.232;2022-10-16T14:52:50;36.10;64.10
40660;DHT22;26753;45.544;9.232;2022-10-16T14:55:17;34.20;66.30
40660;DHT22;26753;45.544;9.232;2022-10-16T14:57:46;33.20;68.00
40660;DHT22;26753;45.544;9.232;2022-10-16T15:00:30;32.40;69.30
40660;DHT22;26753;45.544;9.232;2022-10-16T15:02:56;31.80;70.60
40660;DHT22;26753;45.544;9.232;2022-10-16T15:05:27;31.50;71.40
40660;DHT22;26753;45.544;9.232;2022-10-16T15:07:53;31.30;72.20
40660;DHT22;26753;45.544;9.232;2022-10-16T15:10:21;30.90;72.90
40660;DHT22;26753;45.544;9.232;2022-10-16T15:12:48;30.60;73.50
40660;DHT22;26753;45.544;9.232;2022-10-16T15:17:49;30.20;74.30
40660;DHT22;26753;45.544;9.232;2022-10-16T15:20:18;30.10;74.40
40660;DHT22;26753;45.544;9.232;2022-10-16T15:22:45;30.00;74.80
40660;DHT22;26753;45.544;9.232;2022-10-16T15:25:41;29.90;75.50
40660;DHT22;26753;45.544;9.232;2022-10-16T15:28:08;29.60;75.70
40660;DHT22;26753;45.544;9.232;2022-10-16T15:30:34;29.20;76.90
40660;DHT22;26753;45.544;9.232;2022-10-16T15:33:01;28.90;77.60
40660;DHT22;26753;45.544;9.232;2022-10-16T15:35:27;28.60;78.80
40660;DHT22;26753;45.544;9.232;2022-10-16T15:37:53;28.50;79.30
40660;DHT22;26753;45.544;9.232;2022-10-16T15:40:19;28.50;80.00
40660;DHT22;26753;45.544;9.232;2022-10-16T15:42:46;28.30;80.60
40660;DHT22;26753;45.544;9.232;2022-10-16T15:45:12;28.20;81.10
40660;DHT22;26753;45.544;9.232;2022-10-16T15:47:40;28.30;81.60
40660;DHT22;26753;45.544;9.232;2022-10-16T15:50:06;28.20;81.70
40660;DHT22;26753;45.544;9.232;2022-10-16T15:52:32;28.10;82.30
40660;DHT22;26753;45.544;9.232;2022-10-16T15:54:59;28.00;82.20
40660;DHT22;26753;45.544;9.232;2022-10-16T15:57:28;27.70;83.00
40660;DHT22;26753;45.544;9.232;2022-10-16T15:59:56;27.40;84.00
40660;DHT22;26753;45.544;9.232;2022-10-16T16:02:22;27.30;84.90
40660;DHT22;26753;45.544;9.232;2022-10-16T16:04:48;27.20;85.70
40660;DHT22;26753;45.544;9.232;2022-10-16T16:07:14;27.10;86.50
40660;DHT22;26753;45.544;9.232;2022-10-16T16:09:40;27.10;87.20
40660;DHT22;26753;45.544;9.232;2022-10-16T16:12:06;27.00;87.70
40660;DHT22;26753;45.544;9.232;2022-10-16T16:14:38;26.90;88.60
40660;DHT22;26753;45.544;9.232;2022-10-16T16:17:14;26.80;89.20
40660;DHT22;26753;45.544;9.232;2022-10-16T16:19:40;26.60;90.00
40660;DHT22;26753;45.544;9.232;2022-10-16T16:22:09;26.50;90.40
40660;DHT22;26753;45.544;9.232;2022-10-16T16:24:34;26.30;90.80
40660;DHT22;26753;45.544;9.232;2022-10-16T16:27:00;26.20;91.60
40660;DHT22;26753;45.544;9.232;2022-10-16T16:29:26;26.00;92.10
40660;DHT22;26753;45.544;9.232;2022-10-16T16:31:51;25.90;92.70
40660;DHT22;26753;45.544;9.232;2022-10-16T16:34:24;25.80;93.20
40660;DHT22;26753;45.544;9.232;2022-10-16T16:36:50;25.60;93.60
40660;DHT22;26753;45.544;9.232;2022-10-16T16:39:16;25.60;94.10
40660;DHT22;26753;45.544;9.232;2022-10-16T16:41:42;25.50;94.80
40660;DHT22;26753;45.544;9.232;2022-10-16T16:44:10;25.40;95.50
40660;DHT22;26753;45.544;9.232;2022-10-16T16:46:36;25.30;96.30
40660;DHT22;26753;45.544;9.232;2022-10-16T16:49:06;25.20;97.20
40660;DHT22;26753;45.544;9.232;2022-10-16T16:51:33;25.00;98.30
40660;DHT22;26753;45.544;9.232;2022-10-16T16:53:59;24.90;99.40
40660;DHT22;26753;45.544;9.232;2022-10-16T16:56:25;24.80;99.90
40660;DHT22;26753;45.544;9.232;2022-10-16T16:58:54;24.80;99.90
40660;DHT22;26753;45.544;9.232;2022-10-16T17:01:22;24.70;99.90
40660;DHT22;26753;45.544;9.232;2022-10-16T17:03:51;24.70;99.90
40660;DHT22;26753;45.544;9.232;2022-10-16T17:06:18;24.70;99.90
40660;DHT22;26753;45.544;9.232;2022-10-16T17:08:44;24.60;99.90
40660;DHT22;26753;45.544;9.232;2022-10-16T17:11:15;24.60;99.90
40660;DHT22;26753;45.544;9.232;2022-10-16T17:13:41;24.50;99.90
40660;DHT22;26753;45.544;9.232;2022-10-16T17:16:08;24.40;99.90
40660;DHT22;26753;45.544;9.232;2022-10-16T17:18:34;24.40;99.90
40660;DHT22;26753;45.544;9.232;2022-10-16T17:21:05;24.30;99.90
40660;DHT22;26753;45.544;9.232;2022-10-16T17:23:33;24.20;99.90
40660;DHT22;26753;45.544;9.232;2022-10-16T17:26:11;24.50;99.90
40660;DHT22;26753;45.544;9.232;2022-10-16T17:29:16;24.00;99.90
40660;DHT22;26753;45.544;9.232;2022-10-16T17:31:43;23.90;99.90
40660;DHT22;26753;45.544;9.232;2022-10-16T17:34:09;23.70;99.90
40660;DHT22;26753;45.544;9.232;2022-10-16T17:36:37;23.60;99.90
40660;DHT22;26753;45.544;9.232;2022-10-16T17:39:06;23.50;99.90
40660;DHT22;26753;45.544;9.232;2022-10-16T17:41:33;23.40;99.90
40660;DHT22;26753;45.544;9.232;2022-10-16T17:44:00;23.50;99.90
40660;DHT22;26753;45.544;9.232;2022-10-16T17:46:26;23.30;99.90
40660;DHT22;26753;45.544;9.232;2022-10-16T17:48:53;23.30;99.90
40660;DHT22;26753;45.544;9.232;2022-10-16T17:51:37;23.40;99.90
40660;DHT22;26753;45.544;9.232;2022-10-16T17:54:12;23.30;99.90
40660;DHT22;26753;45.544;9.232;2022-10-16T17:56:41;23.20;99.90
40660;DHT22;26753;45.544;9.232;2022-10-16T17:59:12;23.10;99.90
40660;DHT22;26753;45.544;9.232;2022-10-16T18:01:38;23.10;99.90
40660;DHT22;26753;45.544;9.232;2022-10-16T18:04:11;23.10;99.90
40660;DHT22;26753;45.544;9.232;2022-10-16T18:06:37;23.10;99.90
40660;DHT22;26753;45.544;9.232;2022-10-16T18:09:04;23.10;99.90